createdAt,value
2023-09-06T07:06:09.181Z,4.50
2023-09-06T07:08:39.202Z,4.90
2023-09-06T07:11:07.536Z,4.60
2023-09-06T07:13:35.312Z,4.10
2023-09-06T07:16:04.812Z,4.30
2023-09-06T07:18:32.186Z,4.60
2023-09-06T07:20:59.257Z,4.00
2023-09-06T07:23:27.213Z,4.30
2023-09-06T07:25:53.776Z,4.80
2023-09-06T07:28:24.057Z,4.30
2023-09-06T07:30:50.767Z,3.90
2023-09-06T07:33:17.404Z,5.00
2023-09-06T07:35:44.061Z,4.40
2023-09-06T07:38:10.753Z,4.50
2023-09-06T07:40:37.490Z,4.20
2023-09-06T07:43:04.444Z,4.10
2023-09-06T07:45:32.166Z,4.60
2023-09-06T07:47:58.774Z,4.10
2023-09-06T07:50:25.738Z,4.90
2023-09-06T07:52:52.596Z,3.90
2023-09-06T07:55:19.116Z,3.90
2023-09-06T07:57:45.777Z,4.50
2023-09-06T08:00:13.442Z,4.70
2023-09-06T08:02:40.322Z,4.50
2023-09-06T08:05:08.821Z,4.80
2023-09-06T08:07:37.192Z,5.00
2023-09-06T08:10:18.004Z,4.30
2023-09-06T08:12:44.684Z,4.90
2023-09-06T08:15:11.483Z,4.80
2023-09-06T08:17:38.364Z,4.30
2023-09-06T08:20:09.234Z,4.50
2023-09-06T08:22:44.607Z,4.60
2023-09-06T08:25:13.393Z,4.80
2023-09-06T08:27:40.285Z,4.80
2023-09-06T08:30:13.692Z,4.70
2023-09-06T08:32:41.085Z,4.30
2023-09-06T08:35:08.922Z,4.70
2023-09-06T08:37:35.811Z,4.40
2023-09-06T08:40:06.136Z,4.40
2023-09-06T08:42:36.423Z,4.40
2023-09-06T08:45:04.939Z,4.80
2023-09-06T08:47:31.924Z,4.50
2023-09-06T08:49:58.949Z,4.80
2023-09-06T08:52:25.654Z,4.80
2023-09-06T08:54:52.442Z,4.20
2023-09-06T08:57:20.535Z,3.90
2023-09-06T08:59:47.880Z,4.00
2023-09-06T09:02:15.601Z,4.00
2023-09-06T09:04:43.151Z,4.30
2023-09-06T09:07:11.573Z,5.10
2023-09-06T09:10:06.303Z,3.50
2023-09-06T09:12:33.464Z,4.00
2023-09-06T09:15:10.180Z,4.00
2023-09-06T09:17:58.613Z,4.00
2023-09-06T09:20:27.528Z,4.30
2023-09-06T09:22:58.857Z,3.90
2023-09-06T09:25:25.391Z,4.00
2023-09-06T09:27:56.412Z,4.40
2023-09-06T09:30:23.214Z,4.40
2023-09-06T09:32:56.325Z,4.00
2023-09-06T09:35:23.035Z,4.10
2023-09-06T09:37:53.079Z,3.90
2023-09-06T09:40:25.883Z,4.20
2023-09-06T09:42:56.730Z,3.70
2023-09-06T09:45:25.471Z,3.50
2023-09-06T09:47:55.819Z,3.80
2023-09-06T09:50:24.026Z,3.70
2023-09-06T09:52:50.754Z,3.60
2023-09-06T09:55:17.369Z,3.60
2023-09-06T09:57:44.597Z,3.70
2023-09-06T10:00:14.725Z,3.50
2023-09-06T10:02:42.057Z,3.20
2023-09-06T10:05:12.821Z,3.60
2023-09-06T10:07:49.363Z,3.80
2023-09-06T10:10:16.468Z,3.40
2023-09-06T10:12:44.798Z,3.80
2023-09-06T10:15:14.187Z,3.40
2023-09-06T10:17:44.047Z,3.10
2023-09-06T10:20:13.513Z,3.00
2023-09-06T10:22:52.794Z,3.20
2023-09-06T10:25:19.673Z,3.30
2023-09-06T10:27:47.650Z,3.10
2023-09-06T10:30:20.310Z,3.10
2023-09-06T10:32:47.697Z,2.80
2023-09-06T10:35:25.227Z,3.60
2023-09-06T10:38:24.812Z,3.10
2023-09-06T10:40:51.463Z,3.20
2023-09-06T10:43:20.030Z,3.60
2023-09-06T10:46:08.609Z,3.40
2023-09-06T10:48:35.449Z,3.10
2023-09-06T10:51:09.490Z,3.60
2023-09-06T10:53:39.452Z,3.20
2023-09-06T10:56:06.582Z,3.50
2023-09-06T10:58:37.414Z,3.30
2023-09-06T11:01:18.866Z,3.20
2023-09-06T11:03:51.189Z,3.30
2023-09-06T11:06:19.602Z,3.50
2023-09-06T11:08:46.784Z,3.50
2023-09-06T11:11:14.784Z,3.40
2023-09-06T11:13:43.204Z,3.80
2023-09-06T11:16:14.543Z,3.60
2023-09-06T11:18:48.228Z,3.80
2023-09-06T11:21:19.186Z,3.70
2023-09-06T11:23:49.999Z,3.30
2023-09-06T11:26:17.046Z,3.20
2023-09-06T11:28:43.925Z,3.70
2023-09-06T11:31:22.943Z,3.00
2023-09-06T11:34:02.432Z,3.10
2023-09-06T11:36:32.683Z,3.20
2023-09-06T11:39:11.083Z,2.90
2023-09-06T11:41:40.151Z,3.20
2023-09-06T11:44:11.313Z,3.10
2023-09-06T11:46:39.265Z,3.20
2023-09-06T11:49:07.385Z,3.10
2023-09-06T11:51:34.396Z,3.00
2023-09-06T11:54:01.394Z,2.90
2023-09-06T11:56:32.126Z,3.10
2023-09-06T11:59:00.274Z,3.10
2023-09-06T12:01:27.262Z,2.80
2023-09-06T12:03:54.342Z,3.00
2023-09-06T12:06:21.303Z,2.80
2023-09-06T12:08:48.122Z,2.80
2023-09-06T12:11:21.099Z,2.80
2023-09-06T12:13:47.927Z,2.80
2023-09-06T12:16:16.341Z,3.50
2023-09-06T12:18:43.183Z,3.00
2023-09-06T12:21:09.743Z,2.60
2023-09-06T12:23:38.609Z,2.60
2023-09-06T12:26:05.852Z,2.70
2023-09-06T12:28:34.349Z,2.50
2023-09-06T12:31:07.764Z,2.50
2023-09-06T12:36:17.635Z,2.90
2023-09-06T12:38:44.356Z,2.50
2023-09-06T12:41:12.557Z,2.30
2023-09-06T12:43:39.283Z,2.60
2023-09-06T12:46:08.754Z,2.70
2023-09-06T12:48:35.682Z,2.50
2023-09-06T12:51:05.921Z,3.00
2023-09-06T12:53:33.033Z,2.80
2023-09-06T12:55:59.769Z,3.80
2023-09-06T12:58:28.002Z,3.20
2023-09-06T13:00:55.248Z,3.30
2023-09-06T13:03:22.005Z,2.80
2023-09-06T13:05:49.554Z,2.80
2023-09-06T13:10:43.290Z,3.40
2023-09-06T13:13:09.995Z,2.70
2023-09-06T13:15:36.552Z,2.60
2023-09-06T13:18:04.251Z,3.00
2023-09-06T13:20:31.088Z,2.50
2023-09-06T13:22:58.008Z,3.10
2023-09-06T13:25:24.946Z,2.70
2023-09-06T13:27:51.983Z,2.90
2023-09-06T13:30:18.682Z,2.70
2023-09-06T13:32:45.908Z,2.80
2023-09-06T13:35:14.208Z,2.80
2023-09-06T13:37:41.415Z,2.70
2023-09-06T13:40:09.618Z,2.90
2023-09-06T13:42:37.965Z,2.20
2023-09-06T13:45:05.515Z,3.00
2023-09-06T13:47:32.324Z,2.90
2023-09-06T13:49:59.578Z,2.80
2023-09-06T13:52:26.171Z,4.90
2023-09-06T13:54:52.725Z,3.10
2023-09-06T13:57:19.239Z,3.60
2023-09-06T13:59:47.176Z,2.80
2023-09-06T14:02:14.054Z,2.90
2023-09-06T14:04:44.107Z,3.10
2023-09-06T14:07:11.370Z,3.00
2023-09-06T14:09:38.064Z,2.90
2023-09-06T14:12:04.888Z,2.40
2023-09-06T14:14:31.516Z,2.70
2023-09-06T14:16:58.194Z,3.10
2023-09-06T14:19:26.057Z,3.00
2023-09-06T14:21:52.824Z,2.80
2023-09-06T14:26:06.868Z,3.00
2023-09-06T14:28:34.644Z,3.10
2023-09-06T14:31:02.227Z,3.10
2023-09-06T14:33:29.929Z,2.80
2023-09-06T14:36:01.433Z,2.60
2023-09-06T14:38:29.128Z,2.60
2023-09-06T14:40:56.911Z,2.90
2023-09-06T14:43:24.857Z,2.70
2023-09-06T14:45:52.361Z,2.80
2023-09-06T14:48:20.190Z,3.00
2023-09-06T14:50:47.790Z,3.40
2023-09-06T14:53:15.218Z,2.90
2023-09-06T14:55:42.675Z,2.80
2023-09-06T14:58:10.025Z,2.50
2023-09-06T15:00:37.920Z,2.80
2023-09-06T15:03:05.723Z,3.00
2023-09-06T15:05:33.518Z,2.60
2023-09-06T15:08:02.362Z,3.20
2023-09-06T15:10:33.656Z,2.70
2023-09-06T15:13:01.729Z,2.50
2023-09-06T15:15:29.179Z,2.40
2023-09-06T15:17:59.409Z,2.80
2023-09-06T15:20:27.893Z,2.40
2023-09-06T15:22:55.302Z,2.80
2023-09-06T15:25:25.485Z,2.70
2023-09-06T15:27:54.213Z,2.70
2023-09-06T15:30:21.615Z,2.60
2023-09-06T15:32:49.245Z,2.40
2023-09-06T15:35:17.873Z,2.50
2023-09-06T15:38:12.712Z,2.50
2023-09-06T15:40:40.477Z,2.80
2023-09-06T15:43:07.830Z,2.20
2023-09-06T15:45:35.391Z,2.70
2023-09-06T15:48:04.319Z,2.40
2023-09-06T15:50:32.001Z,2.70
2023-09-06T15:52:59.553Z,2.60
2023-09-06T15:55:27.802Z,2.20
2023-09-06T15:57:55.151Z,2.40
2023-09-06T16:02:53.078Z,2.70
2023-09-06T16:05:20.683Z,2.30
2023-09-06T16:07:48.111Z,2.70
2023-09-06T16:10:15.573Z,2.90
2023-09-06T16:12:45.590Z,2.50
2023-09-06T16:15:17.205Z,3.40
2023-09-06T16:17:46.523Z,2.90
2023-09-06T16:20:14.056Z,2.50
2023-09-06T16:22:42.070Z,2.60
2023-09-06T16:25:11.592Z,2.90
2023-09-06T16:27:39.128Z,2.90
2023-09-06T16:30:09.617Z,2.80
2023-09-06T16:32:37.489Z,3.20
2023-09-06T16:35:09.309Z,3.10
2023-09-06T16:37:40.093Z,2.70
2023-09-06T16:40:12.273Z,3.20
2023-09-06T16:42:41.378Z,2.90
2023-09-06T16:45:09.614Z,3.00
2023-09-06T16:47:37.131Z,3.10
2023-09-06T16:50:04.953Z,2.90
2023-09-06T16:52:32.320Z,2.90
2023-09-06T16:55:00.970Z,2.90
2023-09-06T16:57:28.497Z,3.10
2023-09-06T16:59:55.877Z,3.20
2023-09-06T17:02:25.219Z,4.00
2023-09-06T17:04:53.150Z,2.90
2023-09-06T17:07:20.683Z,3.40
2023-09-06T17:09:48.871Z,3.30
2023-09-06T17:12:16.335Z,3.70
2023-09-06T17:14:43.722Z,3.00
2023-09-06T17:17:11.197Z,3.00
2023-09-06T17:19:38.704Z,3.40
2023-09-06T17:22:06.041Z,3.10
2023-09-06T17:24:33.498Z,3.30
2023-09-06T17:27:01.168Z,3.50
2023-09-06T17:29:30.744Z,3.30
2023-09-06T17:31:58.283Z,4.60
2023-09-06T17:34:26.392Z,3.60
2023-09-06T17:36:54.943Z,4.20
2023-09-06T17:39:22.315Z,4.60
2023-09-06T17:41:49.781Z,4.00
2023-09-06T17:44:17.837Z,4.30
2023-09-06T17:46:45.143Z,4.10
2023-09-06T17:49:14.246Z,4.30
2023-09-06T17:51:45.846Z,4.70
2023-09-06T17:54:14.554Z,4.30
2023-09-06T17:56:42.176Z,4.20
2023-09-06T17:59:09.631Z,4.60
2023-09-06T18:01:37.469Z,4.60
2023-09-06T18:04:07.002Z,4.80
2023-09-06T18:06:34.675Z,4.70
2023-09-06T18:09:08.968Z,4.00
2023-09-06T18:11:37.342Z,4.30
2023-09-06T18:14:09.318Z,4.30
2023-09-06T18:16:43.778Z,3.90
2023-09-06T18:19:13.105Z,4.60
2023-09-06T18:21:41.936Z,3.80
2023-09-06T18:24:14.541Z,3.50
2023-09-06T18:26:48.622Z,4.40
2023-09-06T18:29:21.925Z,4.00
2023-09-06T18:31:51.699Z,4.00
2023-09-06T18:34:19.300Z,4.10
2023-09-06T18:36:46.708Z,4.00
2023-09-06T18:39:16.456Z,4.20
2023-09-06T18:41:43.795Z,3.80
2023-09-06T18:44:11.189Z,3.70
2023-09-06T18:46:38.871Z,3.90
2023-09-06T18:49:08.856Z,3.90
2023-09-06T18:51:36.287Z,3.90
2023-09-06T18:54:03.875Z,4.00
2023-09-06T18:56:37.187Z,4.00
2023-09-06T18:59:04.657Z,4.00
2023-09-06T19:01:32.087Z,3.70
2023-09-06T19:03:59.661Z,3.70
2023-09-06T19:06:30.870Z,3.60
2023-09-06T19:08:58.186Z,4.40
2023-09-06T19:11:26.315Z,4.60
2023-09-06T19:13:53.940Z,4.90
2023-09-06T19:16:25.708Z,5.00
2023-09-06T19:18:53.095Z,4.80
2023-09-06T19:21:20.500Z,4.90
2023-09-06T19:23:49.557Z,5.60
2023-09-06T19:26:16.941Z,5.70
2023-09-06T19:28:44.264Z,5.10
2023-09-06T19:31:11.852Z,5.00
2023-09-06T19:33:40.373Z,5.20
2023-09-06T19:36:07.769Z,5.10
2023-09-06T19:38:35.214Z,5.50
2023-09-06T19:41:02.814Z,5.10
2023-09-06T19:43:30.128Z,4.80
2023-09-06T19:45:57.854Z,5.30
2023-09-06T19:48:25.770Z,5.40
2023-09-06T19:50:53.426Z,5.30
2023-09-06T19:53:20.975Z,5.60
2023-09-06T19:55:49.682Z,5.90
2023-09-06T19:58:17.398Z,5.80
2023-09-06T20:00:44.831Z,5.60
2023-09-06T20:03:12.478Z,5.60
2023-09-06T20:05:39.983Z,5.70
2023-09-06T20:08:07.451Z,5.50
2023-09-06T20:10:42.922Z,5.60
2023-09-06T20:13:11.562Z,5.90
2023-09-06T20:15:38.968Z,5.80
2023-09-06T20:18:08.069Z,6.00
2023-09-06T20:20:37.957Z,5.50
2023-09-06T20:23:05.484Z,6.20
2023-09-06T20:25:32.910Z,5.30
2023-09-06T20:28:00.269Z,5.60
2023-09-06T20:30:27.630Z,5.80
2023-09-06T20:32:55.042Z,6.00
2023-09-06T20:35:22.714Z,6.40
2023-09-06T20:37:50.107Z,5.40
2023-09-06T20:40:18.921Z,5.60
2023-09-06T20:42:46.554Z,5.80
2023-09-06T20:45:13.872Z,5.30
2023-09-06T20:47:41.233Z,5.30
2023-09-06T20:50:09.014Z,5.70
2023-09-06T20:52:36.515Z,5.20
2023-09-06T20:55:06.323Z,5.30
2023-09-06T20:57:33.791Z,5.00
2023-09-06T21:00:01.165Z,5.00
2023-09-06T21:02:30.339Z,5.40
2023-09-06T21:04:58.056Z,5.30
2023-09-06T21:07:25.552Z,5.70
2023-09-06T21:09:53.495Z,4.80
2023-09-06T21:12:20.934Z,5.60
2023-09-06T21:14:48.454Z,5.70
2023-09-06T21:17:15.790Z,5.10
2023-09-06T21:19:43.193Z,5.30
2023-09-06T21:22:10.504Z,5.60
2023-09-06T21:27:05.949Z,5.40
2023-09-06T21:29:33.583Z,5.10
2023-09-06T21:32:00.953Z,5.20
2023-09-06T21:34:28.511Z,5.50
2023-09-06T21:36:57.120Z,5.20
2023-09-06T21:39:25.952Z,4.50
2023-09-06T21:41:53.662Z,5.00
2023-09-06T21:44:21.066Z,5.20
2023-09-06T21:46:48.475Z,4.70
2023-09-06T21:49:15.965Z,4.50
2023-09-06T21:51:43.280Z,4.70
2023-09-06T21:54:10.657Z,4.60
2023-09-06T21:56:38.149Z,6.10
2023-09-06T21:59:07.632Z,5.10
2023-09-06T22:01:37.902Z,4.90
2023-09-06T22:04:24.460Z,4.50
2023-09-06T22:07:11.001Z,4.90
2023-09-06T22:09:57.305Z,4.70
2023-09-06T22:12:43.488Z,5.30
2023-09-06T22:15:13.348Z,5.30
2023-09-06T22:17:41.374Z,5.40
2023-09-06T22:20:08.963Z,4.50
2023-09-06T22:22:37.133Z,5.10
2023-09-06T22:25:08.143Z,4.60
2023-09-06T22:27:35.896Z,4.30
2023-09-06T22:30:04.629Z,5.10
2023-09-06T22:32:32.118Z,4.90
2023-09-06T22:34:59.893Z,4.70
2023-09-06T22:37:30.502Z,5.20
2023-09-06T22:39:57.934Z,4.80
2023-09-06T22:42:25.404Z,4.90
2023-09-06T22:44:52.847Z,4.90
2023-09-06T22:47:20.317Z,4.60
2023-09-06T22:49:47.744Z,4.80
2023-09-06T22:52:15.171Z,5.00
2023-09-06T22:54:42.605Z,4.50
2023-09-06T22:57:09.955Z,4.60
2023-09-06T22:59:37.562Z,3.80
2023-09-06T23:02:04.926Z,4.50
2023-09-06T23:04:37.066Z,4.80
2023-09-06T23:07:04.744Z,4.50
2023-09-06T23:09:34.170Z,4.90
2023-09-06T23:12:06.136Z,4.50
2023-09-06T23:14:40.943Z,5.10
2023-09-06T23:17:09.334Z,5.10
2023-09-06T23:19:48.362Z,4.40
2023-09-06T23:22:20.889Z,4.90
2023-09-06T23:24:50.775Z,4.40
2023-09-06T23:27:19.137Z,4.40
2023-09-06T23:29:52.222Z,4.40
2023-09-06T23:32:23.442Z,4.70
2023-09-06T23:34:53.518Z,4.40
2023-09-06T23:37:21.910Z,4.20
2023-09-06T23:39:50.101Z,4.00
2023-09-06T23:42:21.068Z,4.80
2023-09-06T23:44:48.487Z,4.60
2023-09-06T23:47:16.330Z,4.40
2023-09-06T23:49:46.735Z,4.30
2023-09-06T23:52:17.121Z,4.60
2023-09-06T23:54:47.768Z,4.00
2023-09-06T23:57:18.767Z,4.30
2023-09-06T23:59:47.698Z,4.20
